F/V Chelsea Dawn — WAQ7956 — position and weather

sailwx.info

Track history (hours):
 
Tides and Currents Weather Stations Pressure Air Temp Water Temp Dewpoint Dewpoint Depression Visibility Wind Speed Wind Dir Waves Ship Positions

F/V Chelsea Dawn

Owner: YOUNG, MARK N, SITKA, AK. More information available from US FCC via Universal Licensing System and Coast Guard Vessel Documentation Center.

Last reported at 2018-Feb-23 06:12 UTC. Time now 2018-Feb-23 20:47 UTC.
Position N 48°21' W 124°22'.

Length 15 m.

Type: Fishing. MMSI: 367076240.

Date/timePositionNaut miles runAvg speedWind from/ knotsBaromVisibWave heightAir tempDewpointWater temp
2018-Feb-23 06:12N 48°21' W 124°22'4 9.0
2018-Feb-23 05:42N 48°22' W 124°28'2 8.7
2018-Feb-23 05:29N 48°23' W 124°31'4 9.0
2018-Feb-23 05:00N 48°24' W 124°37'7 7.1
2018-Feb-23 03:57N 48°19' W 124°46'88 3.8
2018-Feb-22 04:52N 46°54' W 124°15'3 6.8
2018-Feb-22 04:26N 46°53' W 124°19'4 6.8
2018-Feb-22 03:47N 46°51' W 124°25'2 7.0
2018-Feb-22 03:30N 46°50' W 124°28'4 7.1
2018-Feb-22 03:00N 46°49' W 124°33'4 7.5
2018-Feb-22 02:28N 46°47' W 124°38'6 1.2
2018-Feb-21 21:37N 46°45' W 124°46'1 3.2
2018-Feb-21 21:26N 46°45' W 124°46'3 3.3
2018-Feb-21 20:23N 46°42' W 124°42'1 1.4
2018-Feb-21 19:52N 46°43' W 124°43'1 1.7
2018-Feb-21 19:29N 46°43' W 124°43'3 6.5
2018-Feb-21 18:59N 46°40' W 124°42'1 1.8
2018-Feb-21 18:25N 46°39' W 124°42'0 0.9
2018-Feb-21 17:50N 46°40' W 124°42'1 3.9
2018-Feb-21 17:29N 46°39' W 124°41'1 2.3
2018-Feb-21 16:59N 46°39' W 124°42'1 1.6
2018-Feb-21 16:30N 46°40' W 124°42'3 5.3
2018-Feb-21 15:59N 46°39' W 124°39'4 7.8
2018-Feb-21 15:30N 46°41' W 124°35'4 7.8
2018-Feb-21 15:00N 46°43' W 124°30'4 8.1
2018-Feb-21 14:30N 46°46' W 124°26'4 7.9
2018-Feb-21 14:00N 46°49' W 124°22'4 8.0
2018-Feb-21 13:29N 46°52' W 124°17'4 7.5
2018-Feb-21 12:56N 46°54' W 124°13'8 0.6
2018-Feb-20 22:20N 46°53' W 124°25'3 7.0
2018-Feb-20 21:57N 46°52' W 124°28'4 7.3
2018-Feb-20 21:27N 46°51' W 124°34'3 7.3
2018-Feb-20 21:00N 46°50' W 124°38'2 0.3
2018-Feb-20 14:05N 46°52' W 124°41'  
Track history (hours):
 
Tides and Currents Weather Stations Pressure Air Temp Water Temp Dewpoint Dewpoint Depression Visibility Wind Speed Wind Dir Waves Ship Positions

F/V Chelsea Dawn

Owner: YOUNG, MARK N, SITKA, AK. More information available from US FCC via Universal Licensing System and Coast Guard Vessel Documentation Center.

Last reported at 2018-Feb-23 06:12 UTC. Time now 2018-Feb-23 20:47 UTC.
Position N 48°21' W 124°22'.

Length 15 m.

Type: Fishing. MMSI: 367076240.

Date/timePositionNaut miles runAvg speedWind from/ knotsBaromVisibWave heightAir tempDewpointWater temp
2018-Feb-23 06:12N 48°21' W 124°22'4 9.0
2018-Feb-23 05:42N 48°22' W 124°28'2 8.7
2018-Feb-23 05:29N 48°23' W 124°31'4 9.0
2018-Feb-23 05:00N 48°24' W 124°37'7 7.1
2018-Feb-23 03:57N 48°19' W 124°46'88 3.8
2018-Feb-22 04:52N 46°54' W 124°15'3 6.8
2018-Feb-22 04:26N 46°53' W 124°19'4 6.8
2018-Feb-22 03:47N 46°51' W 124°25'2 7.0
2018-Feb-22 03:30N 46°50' W 124°28'4 7.1
2018-Feb-22 03:00N 46°49' W 124°33'4 7.5
2018-Feb-22 02:28N 46°47' W 124°38'6 1.2
2018-Feb-21 21:37N 46°45' W 124°46'1 3.2
2018-Feb-21 21:26N 46°45' W 124°46'3 3.3
2018-Feb-21 20:23N 46°42' W 124°42'1 1.4
2018-Feb-21 19:52N 46°43' W 124°43'1 1.7
2018-Feb-21 19:29N 46°43' W 124°43'3 6.5
2018-Feb-21 18:59N 46°40' W 124°42'1 1.8
2018-Feb-21 18:25N 46°39' W 124°42'0 0.9
2018-Feb-21 17:50N 46°40' W 124°42'1 3.9
2018-Feb-21 17:29N 46°39' W 124°41'1 2.3
2018-Feb-21 16:59N 46°39' W 124°42'1 1.6
2018-Feb-21 16:30N 46°40' W 124°42'3 5.3
2018-Feb-21 15:59N 46°39' W 124°39'4 7.8
2018-Feb-21 15:30N 46°41' W 124°35'4 7.8
2018-Feb-21 15:00N 46°43' W 124°30'4 8.1
2018-Feb-21 14:30N 46°46' W 124°26'4 7.9
2018-Feb-21 14:00N 46°49' W 124°22'4 8.0
2018-Feb-21 13:29N 46°52' W 124°17'4 7.5
2018-Feb-21 12:56N 46°54' W 124°13'8 0.6
2018-Feb-20 22:20N 46°53' W 124°25'3 7.0
2018-Feb-20 21:57N 46°52' W 124°28'4 7.3
2018-Feb-20 21:27N 46°51' W 124°34'3 7.3
2018-Feb-20 21:00N 46°50' W 124°38'2 0.3
2018-Feb-20 14:05N 46°52' W 124°41'  

Dump ship's entire track history